Weather at RAF Castle Archdale/RAF Lough Erne [CLOSED]

Public forecast

Using degrees Celsius for public forecast. Weather courtesy of forecast.io.

Closest aviation weather report (METAR) to RAF Castle Archdale/RAF Lough Erne

Report is more than 6 hours old.

Closest report is Sligo Airport, 32.8 nm (60.7 km) WSW.

2022/11/14 15:00 (retrieved 2 years ago)

EISG 141500Z 14012KT 100V160 9999 SCT034 10/04 Q0997

Closest aviation forecast (TAF) to RAF Castle Archdale/RAF Lough Erne

Forecast is more than 12 hours old.

Closest forecast is Ireland West Knock Airport, 51.4 nm (95.2 km) SW.

2023/02/22 18:10 (retrieved 1 year ago)

TAF EIKN 221700Z 2218/2318 35015KT 9999 SCT015 BKN030 TEMPO 2218/2219 35017G28KT -SHRA SCT018CB BECMG 2301/2303 32005KT BECMG 2306/2308 VRB03KT PROB40 TEMPO 2311/2314 -RA BKN012 BECMG 2311/2313 32010KT